Time;durP1;ratioP1;P1;durP2;ratioP2;P2;SDS_P1;SDS_P2;PMS_P1;PMS_P2;Temp;Humidity;BMP_temperature;BMP_pressure;BME280_temperature;BME280_humidity;BME280_pressure;Samples;Min_cycle;Max_cycle;Signal;HPM_P1;HPM_P2
2022/03/21 00:02:26;;;;;;;34.33;23.27;;;7.30;99.90;;;;;;5056302;28;20068;-57
2022/03/21 00:04:53;;;;;;;37.70;23.23;;;6.80;99.90;;;;;;5056378;28;20107;-57
2022/03/21 00:07:19;;;;;;;36.97;24.23;;;7.20;99.90;;;;;;5056525;28;20419;-56
2022/03/21 00:09:45;;;;;;;35.85;24.15;;;7.20;99.90;;;;;;5056394;28;20047;-56
2022/03/21 00:12:13;;;;;;;34.65;23.02;;;6.70;99.90;;;;;;5056292;28;20414;-56
2022/03/21 00:14:41;;;;;;;34.58;23.90;;;6.70;99.90;;;;;;5056331;28;20061;-56
2022/03/21 00:17:07;;;;;;;32.38;22.77;;;6.70;99.90;;;;;;5056147;28;20048;-57
2022/03/21 00:19:33;;;;;;;35.67;22.67;;;6.90;99.90;;;;;;5055941;28;20037;-56
2022/03/21 00:21:58;;;;;;;35.97;23.52;;;6.60;99.90;;;;;;5055962;28;20037;-56
2022/03/21 00:24:24;;;;;;;36.40;22.95;;;6.70;99.90;;;;;;5055927;28;20059;-57
2022/03/21 00:26:50;;;;;;;38.28;23.77;;;7.10;99.90;;;;;;5056037;28;20049;-56
2022/03/21 00:29:16;;;;;;;38.55;23.50;;;;;;;;;;5054596;28;20515;-57
2022/03/21 00:31:44;;;;;;;37.58;22.38;;;;;;;;;;5054597;28;20041;-56
2022/03/21 00:34:10;;;;;;;34.97;22.90;;;;;;;;;;5055652;28;20128;-56
2022/03/21 00:36:35;;;;;;;36.22;23.55;;;6.80;99.90;;;;;;5055918;28;20373;-57
2022/03/21 00:39:01;;;;;;;37.78;22.90;;;6.60;99.90;;;;;;5054631;28;20041;-57
2022/03/21 00:41:28;;;;;;;32.28;23.15;;;7.00;99.90;;;;;;5054641;28;20048;-57
2022/03/21 00:43:54;;;;;;;36.15;23.85;;;;;;;;;;5055727;28;20095;-57
2022/03/21 00:46:20;;;;;;;36.17;23.55;;;6.60;99.90;;;;;;5054335;28;20048;-57
2022/03/21 00:48:46;;;;;;;35.15;23.10;;;6.60;99.90;;;;;;5054369;28;20045;-57
2022/03/21 00:51:11;;;;;;;39.10;23.60;;;6.80;99.90;;;;;;5055770;28;20115;-56
2022/03/21 00:53:37;;;;;;;33.40;23.35;;;6.50;99.90;;;;;;5054418;28;20045;-56
2022/03/21 00:56:03;;;;;;;39.35;24.75;;;7.10;99.90;;;;;;5054247;28;20480;-56
2022/03/21 00:58:28;;;;;;;37.90;23.27;;;6.40;99.90;;;;;;5052945;28;20048;-56
2022/03/21 01:00:56;;;;;;;33.67;22.98;;;;;;;;;;5055367;28;20396;-56
2022/03/21 01:03:22;;;;;;;31.63;23.17;;;;;;;;;;5054970;28;20057;-56
2022/03/21 01:05:48;;;;;;;34.88;23.48;;;6.90;99.90;;;;;;5055341;28;20068;-56
2022/03/21 01:08:13;;;;;;;33.20;22.83;;;7.40;99.90;;;;;;5055431;28;20472;-56
2022/03/21 01:10:39;;;;;;;37.90;24.60;;;6.50;99.90;;;;;;5054198;28;20485;-56
2022/03/21 01:13:05;;;;;;;36.88;22.92;;;6.90;99.90;;;;;;5055088;28;20048;-57
2022/03/21 01:15:31;;;;;;;34.70;24.02;;;6.50;99.90;;;;;;5055031;28;20041;-56
2022/03/21 01:17:58;;;;;;;38.90;24.40;;;7.30;99.90;;;;;;5055378;28;20045;-56
2022/03/21 01:20:24;;;;;;;35.40;24.20;;;6.70;99.90;;;;;;5053680;28;20496;-56
2022/03/21 01:22:50;;;;;;;37.65;24.27;;;6.40;99.90;;;;;;5054876;28;20542;-56
2022/03/21 01:25:17;;;;;;;37.00;24.08;;;7.20;99.90;;;;;;5053733;28;20453;-56
2022/03/21 01:27:43;;;;;;;39.58;25.50;;;6.80;99.90;;;;;;5054868;28;20387;-56
2022/03/21 01:30:11;;;;;;;37.92;23.77;;;6.80;99.90;;;;;;5054944;28;20041;-56
2022/03/21 01:32:38;;;;;;;36.22;23.77;;;6.80;99.90;;;;;;5054439;28;20029;-56
2022/03/21 01:35:05;;;;;;;34.25;24.02;;;7.20;99.90;;;;;;5054757;28;20396;-57
2022/03/21 01:37:31;;;;;;;36.05;24.42;;;6.50;99.90;;;;;;5054932;28;20049;-56
2022/03/21 01:39:57;;;;;;;39.53;24.13;;;;;;;;;;5054673;28;20419;-60
2022/03/21 01:42:23;;;;;;;40.97;24.33;;;;;;;;;;5054494;28;20041;-60
2022/03/21 01:44:53;;;;;;;41.40;24.10;;;6.40;99.90;;;;;;5054500;28;20048;-60
2022/03/21 01:47:19;;;;;;;35.90;24.17;;;;;;;;;;5054174;28;20045;-60
2022/03/21 01:49:45;;;;;;;41.92;25.50;;;6.50;99.90;;;;;;5054352;28;20106;-60
2022/03/21 01:52:12;;;;;;;38.92;24.73;;;6.60;99.90;;;;;;5054191;28;20032;-60
2022/03/21 01:57:22;;;;;;;43.08;24.85;;;6.70;99.90;;;;;;5054158;28;20063;-60
2022/03/21 02:02:47;;;;;;;37.30;24.50;;;6.80;99.90;;;;;;5026380;28;20160;-70
2022/03/21 02:05:13;;;;;;;36.15;23.38;;;;;;;;;;5013322;28;20102;-71
2022/03/21 02:07:39;;;;;;;31.92;22.90;;;6.80;99.90;;;;;;5030995;28;20033;-71
2022/03/21 02:10:06;;;;;;;35.13;23.15;;;6.60;99.90;;;;;;5030695;28;20043;-71
2022/03/21 02:12:33;;;;;;;38.97;22.98;;;6.60;99.90;;;;;;5030380;28;20180;-70
2022/03/21 02:14:59;;;;;;;33.92;22.70;;;;;;;;;;5013425;28;20033;-71
2022/03/21 02:17:27;;;;;;;35.90;22.95;;;6.60;99.90;;;;;;5030743;28;20045;-70
2022/03/21 02:19:54;;;;;;;39.85;23.45;;;6.70;99.90;;;;;;5013620;28;20041;-71
2022/03/21 02:22:38;;;;;;;38.42;23.13;;;6.50;99.90;;;;;;5030276;28;20416;-71
2022/03/21 02:25:31;;;;;;;35.65;23.50;;;6.40;99.90;;;;;;5012249;28;20041;-70
2022/03/21 02:28:02;;;;;;;34.00;22.10;;;6.60;99.90;;;;;;5031325;28;20414;-71
2022/03/21 02:30:31;;;;;;;35.10;22.15;;;6.40;99.90;;;;;;5012958;28;20033;-70
2022/03/21 02:32:58;;;;;;;37.28;22.40;;;6.30;99.90;;;;;;5030406;28;20459;-70
2022/03/21 02:35:24;;;;;;;35.15;22.77;;;6.40;99.90;;;;;;5012660;28;20393;-70
2022/03/21 02:37:51;;;;;;;34.13;22.67;;;6.60;99.90;;;;;;5030920;28;20041;-70
2022/03/21 02:40:17;;;;;;;36.70;22.75;;;;;;;;;;5030207;28;20385;-70
2022/03/21 02:42:43;;;;;;;38.65;23.73;;;6.60;99.90;;;;;;4993340;28;20499;-70
2022/03/21 02:45:09;;;;;;;39.20;22.70;;;6.60;99.90;;;;;;4991994;28;20133;-71
2022/03/21 02:47:35;;;;;;;33.72;22.75;;;6.40;99.90;;;;;;5012451;28;20049;-70
2022/03/21 02:50:02;;;;;;;37.67;23.25;;;6.60;99.90;;;;;;5030890;28;20048;-67
2022/03/21 02:52:29;;;;;;;34.75;22.75;;;6.70;99.90;;;;;;5030322;28;20029;-67
2022/03/21 02:54:55;;;;;;;37.25;23.02;;;6.30;99.90;;;;;;5012462;28;20060;-67
2022/03/21 02:57:21;;;;;;;37.85;23.90;;;6.40;99.90;;;;;;5029671;28;20543;-67
2022/03/21 02:59:47;;;;;;;37.25;23.20;;;6.50;99.90;;;;;;5012782;28;20055;-67
2022/03/21 03:02:13;;;;;;;37.90;22.95;;;6.30;99.90;;;;;;5029833;28;20057;-67
2022/03/21 03:04:39;;;;;;;35.10;22.17;;;;;;;;;;5012541;28;20133;-68
2022/03/21 03:07:05;;;;;;;35.72;22.88;;;;;;;;;;5030233;28;20099;-67
2022/03/21 03:09:31;;;;;;;37.45;23.67;;;6.60;99.90;;;;;;5029796;28;20568;-67
2022/03/21 03:11:56;;;;;;;38.17;22.33;;;6.20;99.90;;;;;;5012685;28;20133;-67
2022/03/21 03:14:22;;;;;;;37.35;22.52;;;6.40;99.90;;;;;;5029554;28;20034;-67
2022/03/21 03:16:48;;;;;;;33.22;21.67;;;;;;;;;;5012164;28;20041;-67
2022/03/21 03:19:14;;;;;;;39.10;21.90;;;;;;;;;;5012762;28;20561;-67
2022/03/21 03:21:44;;;;;;;34.92;22.02;;;6.80;99.90;;;;;;5031269;28;20045;-67
2022/03/21 03:24:11;;;;;;;34.05;20.70;;;4.40;99.90;;;;;;5033869;28;20124;-68
2022/03/21 03:26:37;;;;;;;30.20;21.63;;;5.80;99.90;;;;;;5033346;28;20053;-67
2022/03/21 03:29:03;;;;;;;32.95;22.08;;;5.80;99.90;;;;;;5016105;28;20507;-67
2022/03/21 03:31:29;;;;;;;30.75;21.42;;;6.00;99.90;;;;;;5012807;28;20052;-67
2022/03/21 03:33:55;;;;;;;38.83;22.92;;;5.80;99.90;;;;;;4996705;28;20041;-67
2022/03/21 03:36:22;;;;;;;33.80;21.63;;;5.60;99.90;;;;;;5032763;28;20188;-67
2022/03/21 03:38:48;;;;;;;33.17;20.55;;;4.90;99.90;;;;;;5015810;28;20408;-67
2022/03/21 03:41:15;;;;;;;32.65;21.58;;;5.80;99.90;;;;;;5033635;28;20042;-67
2022/03/21 03:43:43;;;;;;;33.92;21.55;;;5.60;99.90;;;;;;5015824;28;20052;-67
2022/03/21 03:46:09;;;;;;;35.42;21.65;;;5.40;99.90;;;;;;5015710;28;20041;-67
2022/03/21 03:48:35;;;;;;;33.92;22.15;;;5.10;99.90;;;;;;5033381;28;20061;-67
2022/03/21 03:51:03;;;;;;;35.78;22.35;;;4.90;99.90;;;;;;5033648;28;20038;-67
2022/03/21 03:53:29;;;;;;;38.13;24.42;;;5.00;99.90;;;;;;5033012;28;20037;-67
2022/03/21 03:55:55;;;;;;;39.65;24.58;;;5.10;99.90;;;;;;5033703;28;20048;-67
2022/03/21 03:58:21;;;;;;;40.70;24.35;;;;;;;;;;5032862;28;20128;-67
2022/03/21 04:00:47;;;;;;;37.88;23.33;;;5.20;99.90;;;;;;5033778;28;20084;-67
2022/03/21 04:05:57;;;;;;;40.33;25.08;;;5.00;99.90;;;;;;5033496;28;20148;-67
2022/03/21 04:08:24;;;;;;;40.38;25.02;;;4.90;99.90;;;;;;5032456;28;20040;-67
2022/03/21 04:10:49;;;;;;;42.08;26.40;;;5.20;99.90;;;;;;5015664;28;20392;-67
2022/03/21 04:13:15;;;;;;;38.72;25.38;;;4.70;99.90;;;;;;5015692;28;20040;-67
2022/03/21 04:15:41;;;;;;;46.15;27.30;;;;;;;;;;5033074;28;20041;-66
2022/03/21 04:18:07;;;;;;;50.00;27.00;;;4.80;99.90;;;;;;5015190;28;20050;-67
2022/03/21 04:20:36;;;;;;;40.97;24.88;;;;;;;;;;5032805;28;20095;-67
2022/03/21 04:23:03;;;;;;;38.92;24.50;;;4.60;99.90;;;;;;5015618;28;20076;-67
2022/03/21 04:25:29;;;;;;;42.25;26.20;;;5.00;99.90;;;;;;5032214;28;20088;-67
2022/03/21 04:27:55;;;;;;;39.67;24.75;;;3.90;99.90;;;;;;5033415;28;20073;-67
2022/03/21 04:30:21;;;;;;;48.83;26.40;;;4.00;99.90;;;;;;5014773;28;20058;-66
2022/03/21 04:32:47;;;;;;;35.70;24.30;;;4.40;99.90;;;;;;5015145;28;20037;-66
2022/03/21 04:35:13;;;;;;;40.17;24.95;;;;;;;;;;5014596;28;20048;-66
2022/03/21 04:37:40;;;;;;;36.65;23.88;;;4.30;99.90;;;;;;5032499;28;20117;-66
2022/03/21 04:40:07;;;;;;;39.17;23.60;;;4.40;99.90;;;;;;5014603;28;20037;-66
2022/03/21 04:42:37;;;;;;;38.70;23.73;;;4.80;99.90;;;;;;5033094;28;20423;-66
2022/03/21 04:45:04;;;;;;;34.05;23.10;;;4.10;99.90;;;;;;5014987;28;20064;-66
2022/03/21 04:47:31;;;;;;;37.90;23.40;;;4.00;99.90;;;;;;5032162;28;20543;-66
2022/03/21 04:49:56;;;;;;;36.55;23.95;;;4.30;99.90;;;;;;5014630;28;20534;-66
2022/03/21 04:52:22;;;;;;;39.58;25.38;;;3.80;99.90;;;;;;5014468;28;20049;-65
2022/03/21 04:54:48;;;;;;;42.88;25.83;;;3.50;99.90;;;;;;5014996;28;20044;-65
2022/03/21 04:57:14;;;;;;;40.15;25.60;;;4.00;99.90;;;;;;5032339;28;20119;-65
2022/03/21 04:59:40;;;;;;;53.47;29.05;;;3.70;99.90;;;;;;5032270;28;20046;-65
2022/03/21 05:02:06;;;;;;;40.70;25.65;;;3.10;99.90;;;;;;5032371;28;20057;-66
2022/03/21 05:04:35;;;;;;;43.15;26.58;;;3.60;99.90;;;;;;5032113;28;20408;-65
2022/03/21 05:07:01;;;;;;;50.30;28.67;;;4.00;99.90;;;;;;5031863;28;20073;-65
2022/03/21 05:09:27;;;;;;;57.42;30.33;;;;;;;;;;5032343;28;20044;-65
2022/03/21 05:11:53;;;;;;;56.30;30.17;;;;;;;;;;5014332;28;20041;-70
2022/03/21 05:14:19;;;;;;;45.83;28.90;;;;;;;;;;5031787;28;20037;-70
2022/03/21 05:16:49;;;;;;;47.05;29.27;;;3.70;99.90;;;;;;5010868;28;20049;-70
2022/03/21 05:19:15;;;;;;;45.78;27.05;;;;;;;;;;5011065;28;20095;-70
2022/03/21 05:21:41;;;;;;;50.72;30.00;;;;;;;;;;5010557;28;20057;-70
2022/03/21 05:32:25;;;;;;;49.30;29.77;;;3.50;99.90;;;;;;5030309;28;20052;-70
2022/03/21 05:37:36;;;;;;;67.25;34.40;;;;;;;;;;5031330;28;20142;-70
2022/03/21 05:42:47;;;;;;;57.58;32.78;;;3.20;99.90;;;;;;5031779;28;20096;-70
2022/03/21 05:45:19;;;;;;;62.13;34.38;;;;;;;;;;5012695;28;20084;-69
2022/03/21 05:50:34;;;;;;;61.63;32.95;;;3.10;99.90;;;;;;5029923;28;20469;-65
2022/03/21 05:53:02;;;;;;;70.80;35.63;;;3.40;99.90;;;;;;5031446;28;20044;-65
2022/03/21 05:55:29;;;;;;;68.55;34.58;;;;;;;;;;5031210;28;20029;-65
2022/03/21 05:57:55;;;;;;;68.18;34.03;;;3.10;99.90;;;;;;4997164;28;20087;-65
2022/03/21 06:00:22;;;;;;;64.60;35.72;;;3.30;99.90;;;;;;5012959;28;20042;-65
2022/03/21 06:02:49;;;;;;;68.13;35.80;;;3.30;99.90;;;;;;5013123;28;20396;-65
2022/03/21 06:05:15;;;;;;;50.78;31.73;;;3.50;99.90;;;;;;5013237;28;20038;-65
2022/03/21 06:07:40;;;;;;;53.60;32.83;;;3.60;99.90;;;;;;5030828;28;20045;-65
2022/03/21 06:10:07;;;;;;;49.47;31.63;;;3.90;99.90;;;;;;5013011;28;20042;-65
2022/03/21 06:12:33;;;;;;;59.35;31.73;;;;;;;;;;5013135;28;20033;-65
2022/03/21 06:14:59;;;;;;;60.28;35.90;;;;;;;;;;5030918;28;20128;-65
2022/03/21 06:17:25;;;;;;;57.33;33.83;;;3.60;99.90;;;;;;4995927;28;20053;-65
2022/03/21 06:19:51;;;;;;;56.63;34.15;;;4.50;99.90;;;;;;5030887;28;20039;-65
2022/03/21 06:22:17;;;;;;;49.20;29.92;;;;;;;;;;4996380;28;20103;-65
2022/03/21 06:24:43;;;;;;;42.33;26.95;;;4.80;99.90;;;;;;5013381;28;20087;-65
2022/03/21 06:27:09;;;;;;;41.33;27.88;;;;;;;;;;5012608;28;20072;-65
2022/03/21 06:29:35;;;;;;;39.92;25.95;;;5.70;99.90;;;;;;5013094;28;20091;-66
2022/03/21 06:32:01;;;;;;;38.55;24.20;;;;;;;;;;5012968;28;20045;-65
2022/03/21 06:34:26;;;;;;;32.55;22.88;;;7.10;99.90;;;;;;5012912;28;20080;-66
2022/03/21 06:36:52;;;;;;;34.78;21.65;;;;;;;;;;5030416;28;20098;-66
2022/03/21 06:39:19;;;;;;;28.42;21.02;;;;;;;;;;5012217;28;20042;-66
2022/03/21 06:41:45;;;;;;;32.15;21.98;;;9.00;99.90;;;;;;5012995;28;20060;-66
2022/03/21 06:44:11;;;;;;;28.70;20.88;;;9.90;99.90;;;;;;5030118;28;20038;-66
2022/03/21 06:46:37;;;;;;;29.83;21.05;;;;;;;;;;5012001;28;20061;-66
2022/03/21 06:49:03;;;;;;;30.90;21.60;;;9.70;99.90;;;;;;5029951;28;20480;-66
2022/03/21 06:51:29;;;;;;;30.75;22.15;;;9.50;99.90;;;;;;5029546;28;20064;-66
2022/03/21 06:53:55;;;;;;;31.73;21.42;;;8.70;99.90;;;;;;5031029;28;20060;-66
2022/03/21 06:56:21;;;;;;;30.80;22.30;;;8.40;99.90;;;;;;5028906;28;20045;-66
2022/03/21 06:58:47;;;;;;;33.60;21.90;;;;;;;;;;5029876;28;20045;-66
2022/03/21 07:01:12;;;;;;;34.60;22.88;;;7.90;99.90;;;;;;5029287;28;20045;-66
2022/03/21 07:03:39;;;;;;;36.70;22.83;;;;;;;;;;5012320;28;20497;-70
2022/03/21 07:06:05;;;;;;;35.92;23.60;;;;;;;;;;5011999;28;20064;-70
2022/03/21 07:08:31;;;;;;;41.78;25.75;;;;;;;;;;5027397;28;20077;-70
2022/03/21 07:10:57;;;;;;;36.22;23.50;;;;;;;;;;5027116;28;20030;-66
2022/03/21 07:13:23;;;;;;;45.25;27.02;;;;;;;;;;4999063;28;20042;-66
2022/03/21 07:15:50;;;;;;;41.78;28.02;;;;;;;;;;5027535;28;20497;-66
2022/03/21 07:18:16;;;;;;;44.05;28.15;;;7.20;99.90;;;;;;5028049;28;20262;-70
2022/03/21 07:20:43;;;;;;;45.22;28.80;;;;;;;;;;5028592;28;20386;-70
2022/03/21 07:23:09;;;;;;;49.53;29.30;;;7.80;99.90;;;;;;5027583;28;20112;-69
2022/03/21 07:25:35;;;;;;;45.92;29.45;;;;;;;;;;5028466;28;20468;-70
2022/03/21 07:28:01;;;;;;;50.05;29.83;;;;;;;;;;5028736;28;20553;-69
2022/03/21 07:30:27;;;;;;;46.20;30.35;;;7.30;99.90;;;;;;5028475;28;20045;-69
2022/03/21 07:32:52;;;;;;;46.08;28.88;;;7.70;99.90;;;;;;5011561;28;20468;-69
2022/03/21 07:35:18;;;;;;;46.55;26.42;;;7.70;99.90;;;;;;5028096;28;20038;-69
2022/03/21 07:37:47;;;;;;;41.17;25.55;;;7.70;99.90;;;;;;5007148;28;20037;-69
2022/03/21 07:40:14;;;;;;;37.65;24.50;;;7.80;99.90;;;;;;5026615;28;20392;-69
2022/03/21 07:42:41;;;;;;;45.15;24.85;;;8.00;99.90;;;;;;5028693;28;20048;-69
2022/03/21 07:47:53;;;;;;;40.88;23.80;;;8.30;99.90;;;;;;5011915;28;20060;-70
2022/03/21 07:50:20;;;;;;;36.75;23.10;;;8.00;99.90;;;;;;5028348;28;20037;-70
2022/03/21 07:52:47;;;;;;;34.47;22.30;;;7.80;99.90;;;;;;5027956;28;20404;-70
2022/03/21 07:55:13;;;;;;;40.47;22.80;;;;;;;;;;5020074;28;20037;-70
2022/03/21 07:57:39;;;;;;;33.60;21.88;;;;;;;;;;5048805;28;20392;-70
2022/03/21 08:00:09;;;;;;;32.83;21.40;;;8.10;99.90;;;;;;5046272;28;20048;-69
2022/03/21 08:02:35;;;;;;;31.25;20.15;;;9.10;99.90;;;;;;5030492;28;20544;-69
2022/03/21 08:05:01;;;;;;;34.85;20.38;;;;;;;;;;5030593;28;20044;-68
2022/03/21 08:07:27;;;;;;;32.03;20.65;;;8.40;99.90;;;;;;5030907;28;20048;-69
2022/03/21 08:09:53;;;;;;;30.25;19.55;;;;;;;;;;5034623;28;20037;-69
2022/03/21 08:12:19;;;;;;;29.60;19.85;;;;;;;;;;5051518;28;20105;-69
2022/03/21 08:14:45;;;;;;;30.80;20.17;;;8.80;99.90;;;;;;5033849;28;20166;-70
2022/03/21 08:17:11;;;;;;;30.88;19.20;;;8.80;99.90;;;;;;5052267;28;20555;-71
2022/03/21 08:19:37;;;;;;;33.30;20.50;;;;;;;;;;5034006;28;20045;-69
2022/03/21 08:22:07;;;;;;;32.17;18.42;;;;;;;;;;5051402;28;20509;-69
2022/03/21 08:24:35;;;;;;;26.17;16.60;;;9.90;99.90;;;;;;5025374;28;20038;-69
2022/03/21 08:27:01;;;;;;;27.67;17.50;;;11.00;99.90;;;;;;5000519;28;20037;-69
2022/03/21 08:29:27;;;;;;;29.27;17.40;;;12.10;99.90;;;;;;5026404;28;20484;-69
2022/03/21 08:31:53;;;;;;;28.15;15.85;;;12.90;99.90;;;;;;5004321;28;20042;-69
2022/03/21 08:34:19;;;;;;;30.88;16.17;;;;;;;;;;5019744;28;20046;-69
2022/03/21 08:36:45;;;;;;;28.33;16.75;;;;;;;;;;5031988;28;20037;-69
2022/03/21 08:39:11;;;;;;;26.92;15.82;;;;;;;;;;5031059;28;20037;-69
2022/03/21 08:41:38;;;;;;;27.45;15.40;;;14.00;99.90;;;;;;5030087;28;20049;-70
2022/03/21 08:44:04;;;;;;;38.28;16.42;;;14.50;99.90;;;;;;5013652;28;20034;-69
2022/03/21 08:46:30;;;;;;;31.17;15.52;;;14.40;99.90;;;;;;5013748;28;20503;-69
2022/03/21 08:51:43;;;;;;;26.27;14.45;;;14.60;99.90;;;;;;5031156;28;20055;-69
2022/03/21 08:54:09;;;;;;;23.73;13.20;;;;;;;;;;5030343;28;20044;-70
2022/03/21 08:56:35;;;;;;;29.23;13.93;;;14.70;99.90;;;;;;5031372;28;20041;-70
2022/03/21 08:59:01;;;;;;;24.65;13.90;;;14.40;99.90;;;;;;5031594;28;20042;-70
2022/03/21 09:01:27;;;;;;;25.25;13.43;;;14.30;99.90;;;;;;5013607;28;20052;-70
2022/03/21 09:03:54;;;;;;;22.70;13.63;;;12.80;98.40;;;;;;5031020;28;20050;-70
2022/03/21 09:06:22;;;;;;;27.48;14.68;;;14.80;99.90;;;;;;5030496;28;20037;-69
2022/03/21 09:08:49;;;;;;;22.38;14.40;;;14.90;99.90;;;;;;5030902;28;20469;-69
2022/03/21 09:11:17;;;;;;;26.20;15.05;;;14.60;99.70;;;;;;5031009;28;20033;-68
2022/03/21 09:13:44;;;;;;;25.20;15.38;;;14.40;99.90;;;;;;5031616;28;20048;-68
2022/03/21 09:16:11;;;;;;;21.80;14.65;;;14.60;99.90;;;;;;5013395;28;20037;-68
2022/03/21 09:18:37;;;;;;;27.70;14.75;;;14.80;99.90;;;;;;5030951;28;20440;-68
2022/03/21 09:21:03;;;;;;;25.60;14.38;;;14.80;99.90;;;;;;5013076;28;20037;-68
2022/03/21 09:23:29;;;;;;;31.70;15.27;;;;;;;;;;5030216;28;20044;-69
2022/03/21 09:25:55;;;;;;;25.38;14.50;;;14.80;99.90;;;;;;5012869;28;20484;-69
2022/03/21 09:28:21;;;;;;;27.90;15.43;;;14.60;99.90;;;;;;5012958;28;20076;-67
2022/03/21 09:30:48;;;;;;;23.08;15.18;;;14.70;99.90;;;;;;5031096;28;20044;-68
2022/03/21 09:33:15;;;;;;;24.55;16.52;;;;;;;;;;5030481;28;20037;-67
2022/03/21 09:35:43;;;;;;;28.60;17.02;;;;;;;;;;5030863;28;20041;-68
2022/03/21 09:38:10;;;;;;;36.40;18.00;;;14.90;98.90;;;;;;5030311;28;20046;-68
2022/03/21 09:40:35;;;;;;;33.35;18.23;;;15.00;99.90;;;;;;5030832;28;20052;-68
2022/03/21 09:43:01;;;;;;;27.13;17.05;;;;;;;;;;5030437;28;20531;-68
2022/03/21 09:45:28;;;;;;;29.65;18.27;;;15.00;98.20;;;;;;5019241;28;20442;-67
2022/03/21 09:48:09;;;;;;;31.33;18.20;;;14.90;99.90;;;;;;5022632;28;20487;-67
2022/03/21 09:50:37;;;;;;;28.67;17.52;;;15.30;99.90;;;;;;5030139;28;20538;-66
2022/03/21 09:53:04;;;;;;;30.27;17.73;;;15.30;95.40;;;;;;5030211;28;20135;-66
2022/03/21 09:55:30;;;;;;;28.55;18.58;;;;;;;;;;5029519;28;20124;-66
2022/03/21 09:57:56;;;;;;;29.30;18.63;;;;;;;;;;5009613;28;20119;-66
2022/03/21 10:00:23;;;;;;;35.00;19.17;;;;;;;;;;5011922;28;20117;-67
2022/03/21 10:02:48;;;;;;;32.83;18.77;;;14.90;99.90;;;;;;5012809;28;20408;-67
2022/03/21 10:05:43;;;;;;;32.80;19.40;;;14.20;99.90;;;;;;5012158;28;20054;-67
2022/03/21 10:08:29;;;;;;;32.63;20.38;;;14.90;99.90;;;;;;5011805;28;20081;-67
2022/03/21 10:11:00;;;;;;;31.73;21.15;;;14.90;99.90;;;;;;5029809;28;20099;-68
2022/03/21 10:13:31;;;;;;;37.17;21.58;;;14.90;99.90;;;;;;5011934;28;20064;-67
2022/03/21 10:16:16;;;;;;;35.08;21.08;;;14.90;98.60;;;;;;5012631;28;20070;-67
2022/03/21 10:18:53;;;;;;;34.67;20.48;;;15.10;98.50;;;;;;5030495;28;20093;-67
2022/03/21 10:21:30;;;;;;;30.80;20.02;;;15.00;97.90;;;;;;5010890;28;20511;-67
2022/03/21 10:24:07;;;;;;;37.90;20.98;;;15.10;98.30;;;;;;5028983;28;20037;-67
2022/03/21 10:26:42;;;;;;;32.60;20.45;;;15.30;99.90;;;;;;5012262;28;20042;-68
2022/03/21 10:29:10;;;;;;;37.75;20.60;;;15.10;97.20;;;;;;5029592;28;20041;-67
2022/03/21 10:31:43;;;;;;;43.35;20.98;;;14.00;99.90;;;;;;5011980;28;20046;-67
2022/03/21 10:34:11;;;;;;;36.30;21.13;;;14.90;97.30;;;;;;5011761;28;20041;-67
2022/03/21 10:37:00;;;;;;;33.63;20.52;;;15.10;96.70;;;;;;5029366;28;20436;-63
2022/03/21 10:39:26;;;;;;;36.35;21.20;;;15.00;99.90;;;;;;5011576;28;20396;-65
2022/03/21 10:41:57;;;;;;;34.30;21.35;;;15.10;97.00;;;;;;5030022;28;20037;-64
2022/03/21 10:44:23;;;;;;;38.15;21.08;;;15.90;99.90;;;;;;5029025;28;20276;-64
2022/03/21 10:46:58;;;;;;;35.30;21.08;;;15.30;99.90;;;;;;5027438;28;20045;-65
2022/03/21 10:49:38;;;;;;;30.23;19.90;;;15.20;99.90;;;;;;5019955;28;20049;-65
2022/03/21 10:52:08;;;;;;;37.03;21.20;;;15.40;99.90;;;;;;5015998;28;20091;-65
2022/03/21 10:54:34;;;;;;;38.60;20.42;;;;;;;;;;5010765;28;20116;-65
2022/03/21 10:57:00;;;;;;;35.22;20.10;;;;;;;;;;5010048;28;20485;-67
2022/03/21 10:59:26;;;;;;;35.67;19.85;;;15.30;95.70;;;;;;5012791;28;20514;-67
2022/03/21 11:02:17;;;;;;;38.40;19.90;;;15.20;95.00;;;;;;5027886;28;20135;-66
2022/03/21 11:04:47;;;;;;;37.10;20.25;;;15.20;95.40;;;;;;5006033;28;20609;-66
2022/03/21 11:07:13;;;;;;;34.20;19.08;;;;;;;;;;5014753;28;20041;-66
2022/03/21 11:09:40;;;;;;;33.90;20.35;;;15.30;95.00;;;;;;5026794;28;20040;-65
2022/03/21 11:12:08;;;;;;;44.45;20.70;;;15.30;99.90;;;;;;5010578;28;20537;-65
2022/03/21 11:14:39;;;;;;;36.53;20.60;;;15.30;99.90;;;;;;5010580;28;20069;-66
2022/03/21 11:17:07;;;;;;;33.38;20.70;;;15.30;99.90;;;;;;5028975;28;20116;-66
2022/03/21 11:19:33;;;;;;;37.72;20.35;;;15.90;97.60;;;;;;5029457;28;20137;-66
2022/03/21 11:22:02;;;;;;;35.17;20.13;;;;;;;;;;5028793;28;20480;-67
2022/03/21 11:24:29;;;;;;;36.30;20.48;;;15.50;92.60;;;;;;5010741;28;20496;-64
2022/03/21 11:27:14;;;;;;;34.50;20.65;;;15.50;98.10;;;;;;5010816;28;20045;-67
2022/03/21 11:29:58;;;;;;;42.10;20.98;;;15.60;95.10;;;;;;5026699;28;20033;-67
2022/03/21 11:32:36;;;;;;;35.50;20.65;;;15.50;91.00;;;;;;5011386;28;20044;-68
2022/03/21 11:35:14;;;;;;;35.47;20.98;;;15.50;92.80;;;;;;5028506;28;20041;-67
2022/03/21 11:37:42;;;;;;;37.85;20.80;;;15.60;99.90;;;;;;5027228;28;20064;-67
2022/03/21 11:40:28;;;;;;;40.03;20.75;;;15.70;97.80;;;;;;5010440;28;20041;-67
2022/03/21 11:43:16;;;;;;;33.08;20.55;;;15.80;98.50;;;;;;5010133;28;20352;-68
2022/03/21 11:45:47;;;;;;;34.17;21.00;;;15.90;97.30;;;;;;5001340;28;20069;-68
2022/03/21 11:48:19;;;;;;;33.35;21.30;;;15.80;99.90;;;;;;5029989;28;20121;-68
2022/03/21 11:50:46;;;;;;;32.33;21.15;;;15.80;91.60;;;;;;5031825;28;20540;-68
2022/03/21 11:53:14;;;;;;;34.80;20.55;;;15.80;90.50;;;;;;5032208;28;20521;-68
2022/03/21 11:55:43;;;;;;;32.50;21.45;;;15.70;85.60;;;;;;5032010;28;20753;-68
2022/03/21 11:58:27;;;;;;;35.55;19.50;;;16.10;88.60;;;;;;5014700;28;20060;-67
2022/03/21 12:01:17;;;;;;;35.42;21.58;;;16.10;99.90;;;;;;5032969;28;20431;-68
2022/03/21 12:03:43;;;;;;;31.55;19.83;;;;;;;;;;5032336;28;20500;-68
2022/03/21 12:06:27;;;;;;;36.65;20.98;;;16.20;96.20;;;;;;5012930;28;20052;-68
2022/03/21 12:08:53;;;;;;;43.10;21.05;;;;;;;;;;5032798;28;20516;-68
2022/03/21 12:11:37;;;;;;;33.35;20.58;;;15.90;83.50;;;;;;5032016;28;20067;-68
2022/03/21 12:14:21;;;;;;;38.47;21.35;;;16.50;94.80;;;;;;5014683;28;20120;-68
2022/03/21 12:17:04;;;;;;;34.03;21.83;;;16.60;85.10;;;;;;5014837;28;20045;-68
2022/03/21 12:19:47;;;;;;;37.15;21.10;;;16.70;99.90;;;;;;5031772;28;20042;-68
2022/03/21 12:25:11;;;;;;;33.67;20.15;;;16.60;90.80;;;;;;5002940;28;20064;-69
2022/03/21 12:27:52;;;;;;;38.42;21.58;;;16.50;99.70;;;;;;5014327;28;21198;-68
2022/03/21 12:30:24;;;;;;;32.08;20.63;;;16.80;83.30;;;;;;5013783;28;20038;-69
2022/03/21 12:32:51;;;;;;;37.60;21.80;;;17.00;99.90;;;;;;5031877;28;20049;-68
2022/03/21 12:35:32;;;;;;;35.25;21.52;;;17.00;80.70;;;;;;5024658;28;20684;-68
2022/03/21 12:38:02;;;;;;;36.53;21.23;;;17.60;98.90;;;;;;5026834;28;20493;-68
2022/03/21 12:40:29;;;;;;;32.83;20.98;;;;;;;;;;5009898;28;20203;-68
2022/03/21 12:42:59;;;;;;;34.05;20.08;;;17.30;78.50;;;;;;5028969;28;20210;-69
2022/03/21 12:45:25;;;;;;;33.15;20.95;;;;;;;;;;5039478;28;20025;-68
2022/03/21 12:47:52;;;;;;;29.05;20.52;;;17.40;77.50;;;;;;5029406;28;20164;-69
2022/03/21 12:50:23;;;;;;;39.08;21.02;;;17.50;76.20;;;;;;5040238;28;20358;-69
2022/03/21 12:53:18;;;;;;;33.58;20.85;;;17.30;81.60;;;;;;5020520;28;20034;-69
2022/03/21 12:55:46;;;;;;;42.33;21.55;;;17.40;75.20;;;;;;4991940;28;20481;-69
2022/03/21 12:58:14;;;;;;;36.63;21.80;;;17.60;76.50;;;;;;5008936;28;20050;-69
2022/03/21 13:00:42;;;;;;;37.03;20.75;;;17.60;74.30;;;;;;5028348;28;20400;-69
2022/03/21 13:03:10;;;;;;;32.60;21.67;;;17.70;74.80;;;;;;4987828;28;20146;-69
2022/03/21 13:11:24;;;;;;;37.33;22.00;;;;;;;;;;5003843;28;20049;-69
2022/03/21 13:13:55;;;;;;;31.25;21.88;;;18.00;96.30;;;;;;5024376;28;20173;-69
2022/03/21 13:16:22;;;;;;;35.67;21.40;;;17.80;73.10;;;;;;5010798;28;20053;-69
2022/03/21 13:18:48;;;;;;;38.60;22.15;;;17.70;94.70;;;;;;5006623;28;20045;-69
2022/03/21 13:21:14;;;;;;;39.90;21.98;;;17.90;95.50;;;;;;5007351;28;20034;-69
2022/03/21 13:23:43;;;;;;;30.85;21.13;;;17.70;88.70;;;;;;5029701;28;20033;-69
2022/03/21 13:26:11;;;;;;;33.65;21.13;;;17.80;71.30;;;;;;5012276;28;20045;-69
2022/03/21 13:28:38;;;;;;;34.03;21.92;;;17.80;88.20;;;;;;5013260;28;20061;-69
2022/03/21 13:31:09;;;;;;;37.60;21.70;;;17.90;75.40;;;;;;5030679;28;20041;-69
2022/03/21 13:33:37;;;;;;;33.45;22.58;;;17.80;69.20;;;;;;5018180;28;20076;-69
2022/03/21 13:36:26;;;;;;;36.83;22.55;;;17.40;70.70;;;;;;5034920;28;20037;-69
2022/03/21 13:39:32;;;;;;;33.78;22.70;;;17.80;71.50;;;;;;5016018;28;20088;-70
2022/03/21 13:42:07;;;;;;;37.38;22.60;;;17.60;92.60;;;;;;4966719;28;20358;-69